Time;durP1;ratioP1;P1;durP2;ratioP2;P2;SDS_P1;SDS_P2;PMS_P1;PMS_P2;Temp;Humidity;BMP_temperature;BMP_pressure;BME280_temperature;BME280_humidity;BME280_pressure;Samples;Min_cycle;Max_cycle;Signal;HPM_P1;HPM_P2
2022/01/28 00:00:41;;;;;;;;;;;;;;;-17.38;59.68;97256.81;6331272;28;19924;-61
2022/01/28 00:03:48;;;;;;;;;;;;;;;-17.43;59.45;97263.28;6323257;28;19927;-61
2022/01/28 00:06:53;;;;;;;;;;;;;;;-17.49;59.65;97265.47;6327316;28;19924;-61
2022/01/28 00:09:54;;;;;;;;;;;;;;;-17.53;59.74;97256.06;6322870;28;19924;-61
2022/01/28 00:17:02;;;;;;;;;;;;;;;-17.63;59.62;97274.00;6303698;28;19925;-61
2022/01/28 00:39:19;;;;;;;;;;;;;;;-17.77;59.30;97270.81;6330737;28;20317;-60
2022/01/28 00:42:20;;;;;;;;;;;;;;;-17.79;59.37;97270.75;6324400;28;19925;-61
2022/01/28 00:45:22;;;;;;;;;;;;;;;-17.76;59.33;97270.88;6327398;28;20046;-60
2022/01/28 00:48:23;;;;;;;;;;;;;;;-17.78;59.40;97272.47;6329287;28;19924;-60
2022/01/28 00:51:24;;;;;;;;;;;;;;;-17.83;59.06;97260.44;6325333;28;20400;-60
2022/01/28 00:54:25;;;;;;;;;;;;;;;-17.91;59.12;97270.13;6331394;28;20312;-60
2022/01/28 00:57:26;;;;;;;;;;;;;;;-17.96;59.01;97271.53;6325748;28;19938;-61
2022/01/28 01:00:30;;;;;;;;;;;;;;;-18.01;59.05;97263.75;6322704;28;19924;-61
2022/01/28 01:03:34;;;;;;;;;;;;;;;-18.01;59.32;97262.91;6329510;28;19931;-61
2022/01/28 01:06:36;;;;;;;;;;;;;;;-17.94;59.35;97262.44;6326335;28;19967;-60
2022/01/28 01:09:39;;;;;;;;;;;;;;;-17.86;59.39;97258.66;6343011;28;19928;-60
2022/01/28 01:12:44;;;;;;;;;;;;;;;-17.86;59.19;97263.66;6336075;28;19923;-60
2022/01/28 01:15:52;;;;;;;;;;;;;;;-17.89;58.96;97268.53;6321917;28;20382;-60
2022/01/28 01:19:12;;;;;;;;;;;;;;;-17.91;58.90;97260.09;6332860;28;19924;-60
2022/01/28 01:22:15;;;;;;;;;;;;;;;-17.95;58.99;97253.16;6325999;28;20023;-60
2022/01/28 01:25:24;;;;;;;;;;;;;;;-17.93;58.88;97256.63;6324218;28;19945;-61
2022/01/28 01:28:30;;;;;;;;;;;;;;;-17.94;58.88;97259.94;6323837;28;19924;-61
2022/01/28 01:31:31;;;;;;;;;;;;;;;-17.92;58.97;97256.69;6323970;28;20449;-61
2022/01/28 01:34:32;;;;;;;;;;;;;;;-17.98;58.53;97268.09;6327321;28;20486;-61
2022/01/28 01:37:33;;;;;;;;;;;;;;;-18.01;58.59;97258.72;6329197;28;19924;-60
2022/01/28 01:40:46;;;;;;;;;;;;;;;-18.01;59.22;97267.94;6333726;28;20430;-61
2022/01/28 01:54:00;;;;;;;;;;;;;;;-17.61;59.17;97262.38;6263286;28;19924;-62
2022/01/28 01:57:01;;;;;;;;;;;;;;;-17.54;59.11;97269.44;6311615;28;20306;-61
2022/01/28 02:00:04;;;;;;;;;;;;;;;-17.51;58.93;97252.84;6308202;28;19927;-62
2022/01/28 02:03:06;;;;;;;;;;;;;;;-17.47;59.02;97258.88;6317447;28;19939;-60
2022/01/28 02:06:10;;;;;;;;;;;;;;;-17.44;59.03;97248.97;6335091;28;19926;-61
2022/01/28 02:09:13;;;;;;;;;;;;;;;-17.36;59.31;97256.91;6333835;28;19935;-61
2022/01/28 02:12:14;;;;;;;;;;;;;;;-17.27;59.33;97243.09;6328755;28;19924;-62
2022/01/28 02:15:19;;;;;;;;;;;;;;;-17.23;58.74;97234.94;6331217;28;19928;-61
2022/01/28 02:18:21;;;;;;;;;;;;;;;-17.30;58.52;97240.44;6328576;28;19981;-62
2022/01/28 02:21:22;;;;;;;;;;;;;;;-17.37;58.96;97243.47;6332774;28;19935;-61
2022/01/28 02:24:32;;;;;;;;;;;;;;;-17.42;59.82;97242.38;6328365;28;19924;-61
2022/01/28 02:27:33;;;;;;;;;;;;;;;-17.41;59.36;97238.22;6323926;28;20297;-61
2022/01/28 02:30:35;;;;;;;;;;;;;;;-17.41;59.30;97239.06;6334424;28;20000;-61
2022/01/28 02:33:36;;;;;;;;;;;;;;;-17.43;58.83;97235.63;6325822;28;19931;-61
2022/01/28 02:36:38;;;;;;;;;;;;;;;-17.43;58.92;97238.16;6331150;28;19932;-60
2022/01/28 02:39:39;;;;;;;;;;;;;;;-17.46;58.73;97241.38;6329080;28;19923;-61
2022/01/28 02:42:53;;;;;;;;;;;;;;;-17.48;58.83;97237.06;6330621;28;19957;-61
2022/01/28 02:46:02;;;;;;;;;;;;;;;-17.46;59.15;97245.53;6330976;28;19923;-62
2022/01/28 02:49:09;;;;;;;;;;;;;;;-17.38;59.30;97254.28;6331484;28;20019;-61
2022/01/28 02:52:18;;;;;;;;;;;;;;;-17.33;59.29;97242.81;6328480;28;20300;-61
2022/01/28 02:55:22;;;;;;;;;;;;;;;-17.29;59.53;97239.69;6328722;28;19923;-61
2022/01/28 02:58:25;;;;;;;;;;;;;;;-17.29;59.32;97244.72;6328984;28;19920;-61
2022/01/28 03:01:26;;;;;;;;;;;;;;;-17.34;58.70;97236.06;6323166;28;20322;-61
2022/01/28 03:07:36;;;;;;;;;;;;;;;-17.36;59.13;97242.66;6328257;28;19920;-61
2022/01/28 03:11:13;;;;;;;;;;;;;;;-17.30;59.38;97242.97;6323632;28;19928;-61
2022/01/28 03:17:37;;;;;;;;;;;;;;;-17.12;58.91;97242.13;6314610;28;20386;-61
2022/01/28 03:20:45;;;;;;;;;;;;;;;-17.10;58.69;97248.09;6321212;28;20070;-61
2022/01/28 03:23:46;;;;;;;;;;;;;;;-17.11;58.59;97254.78;6323176;28;19924;-61
2022/01/28 03:26:53;;;;;;;;;;;;;;;-17.16;58.75;97255.34;6321355;28;20409;-61
2022/01/28 03:29:54;;;;;;;;;;;;;;;-17.15;58.89;97264.63;6323945;28;19971;-61
2022/01/28 03:32:55;;;;;;;;;;;;;;;-17.14;58.94;97263.84;6317004;28;19930;-61
2022/01/28 03:36:02;;;;;;;;;;;;;;;-17.13;58.89;97258.00;6323889;28;19923;-63
2022/01/28 03:39:03;;;;;;;;;;;;;;;-17.15;58.84;97257.94;6318790;28;19924;-64
2022/01/28 03:42:05;;;;;;;;;;;;;;;-17.20;58.80;97254.34;6323251;28;19924;-61
2022/01/28 03:45:06;;;;;;;;;;;;;;;-17.13;58.47;97255.50;6318082;28;19928;-61
2022/01/28 03:48:10;;;;;;;;;;;;;;;-17.23;58.60;97254.19;6315634;28;19928;-61
2022/01/28 03:51:11;;;;;;;;;;;;;;;-17.23;58.60;97246.66;6330420;28;20332;-61
2022/01/28 03:54:14;;;;;;;;;;;;;;;-17.18;58.42;97246.84;6329650;28;19934;-60
2022/01/28 03:57:15;;;;;;;;;;;;;;;-17.16;58.72;97252.84;6324687;28;19931;-62
2022/01/28 04:00:17;;;;;;;;;;;;;;;-17.08;58.56;97249.03;6324886;28;19924;-61
2022/01/28 04:13:02;;;;;;;;;;;;;;;-16.56;59.01;97246.38;6324541;28;20297;-61
2022/01/28 04:19:07;;;;;;;;;;;;;;;-16.32;58.71;97250.03;6321521;28;19924;-61
2022/01/28 04:22:08;;;;;;;;;;;;;;;-16.11;58.42;97254.28;6329139;28;19924;-61
2022/01/28 04:25:09;;;;;;;;;;;;;;;-15.97;58.28;97253.22;6325789;28;19929;-61
2022/01/28 04:28:10;;;;;;;;;;;;;;;-15.92;58.24;97254.31;6325789;28;20293;-61
2022/01/28 04:31:11;;;;;;;;;;;;;;;-15.88;58.16;97253.66;6327049;28;20412;-61
2022/01/28 04:34:15;;;;;;;;;;;;;;;-15.81;58.42;97256.44;6323811;28;20316;-63
2022/01/28 04:37:37;;;;;;;;;;;;;;;-15.79;58.47;97262.38;6322109;28;20006;-61
2022/01/28 04:40:50;;;;;;;;;;;;;;;-15.72;58.34;97249.25;6324770;28;19920;-61
2022/01/28 04:43:59;;;;;;;;;;;;;;;-15.62;58.42;97243.78;6323300;28;20190;-61
2022/01/28 04:47:08;;;;;;;;;;;;;;;-15.55;58.66;97245.75;6312523;28;19924;-62
2022/01/28 04:50:33;;;;;;;;;;;;;;;-15.29;58.11;97248.50;6301104;28;19981;-61
2022/01/28 04:53:48;;;;;;;;;;;;;;;-15.17;58.02;97246.47;6296421;28;20022;-61
2022/01/28 05:01:15;;;;;;;;;;;;;;;-14.68;57.62;97250.94;6312626;28;19924;-61
2022/01/28 05:23:54;;;;;;;;;;;;;;;-13.36;55.78;97241.41;6327288;28;19931;-65
2022/01/28 05:27:05;;;;;;;;;;;;;;;-13.13;55.68;97233.69;6312966;28;20008;-65
2022/01/28 05:30:07;;;;;;;;;;;;;;;-12.89;54.89;97233.59;6297313;28;20305;-64
2022/01/28 05:33:10;;;;;;;;;;;;;;;-12.75;55.13;97232.34;6303441;28;20345;-65
2022/01/28 05:36:16;;;;;;;;;;;;;;;-12.57;54.56;97236.25;6306421;28;20030;-66
2022/01/28 05:39:17;;;;;;;;;;;;;;;-12.45;54.61;97244.25;6311779;28;19924;-64
2022/01/28 05:42:24;;;;;;;;;;;;;;;-12.40;54.59;97237.63;6291936;28;19924;-64
2022/01/28 05:45:25;;;;;;;;;;;;;;;-12.28;54.34;97235.47;6311127;28;19935;-64
2022/01/28 05:48:26;;;;;;;;;;;;;;;-12.12;54.16;97239.31;6305070;28;19923;-64
2022/01/28 05:51:27;;;;;;;;;;;;;;;-11.96;54.44;97233.00;6315509;28;20416;-64
2022/01/28 05:54:28;;;;;;;;;;;;;;;-11.87;54.06;97233.25;6319555;28;20009;-64
2022/01/28 05:57:33;;;;;;;;;;;;;;;-11.81;53.53;97230.84;6315669;28;20010;-65
2022/01/28 06:00:34;;;;;;;;;;;;;;;-11.79;54.07;97230.91;6313044;28;19924;-65
2022/01/28 06:03:39;;;;;;;;;;;;;;;-11.78;54.16;97227.56;6293822;28;19924;-65
2022/01/28 06:06:43;;;;;;;;;;;;;;;-11.60;54.23;97227.22;6289457;28;20370;-64
2022/01/28 06:09:44;;;;;;;;;;;;;;;-11.58;54.59;97230.63;6312873;28;19998;-65
2022/01/28 06:12:49;;;;;;;;;;;;;;;-11.43;54.05;97227.66;6308470;28;19924;-64
2022/01/28 06:15:50;;;;;;;;;;;;;;;-11.29;54.01;97223.81;6312750;28;19924;-65
2022/01/28 06:18:51;;;;;;;;;;;;;;;-11.17;53.77;97235.94;6316169;28;19929;-64
2022/01/28 06:21:52;;;;;;;;;;;;;;;-11.06;53.60;97231.16;6311427;28;19924;-65
2022/01/28 06:24:53;;;;;;;;;;;;;;;-11.00;53.16;97232.16;6311122;28;19924;-64
2022/01/28 06:27:56;;;;;;;;;;;;;;;-10.92;53.56;97228.13;6319180;28;19931;-65
2022/01/28 06:30:57;;;;;;;;;;;;;;;-10.89;53.28;97224.78;6315426;28;19930;-65
2022/01/28 06:33:58;;;;;;;;;;;;;;;-11.01;53.64;97222.81;6311118;28;19924;-64
2022/01/28 06:36:59;;;;;;;;;;;;;;;-10.93;53.24;97213.66;6315637;28;19935;-64
2022/01/28 06:40:00;;;;;;;;;;;;;;;-10.77;53.30;97211.50;6310967;28;19927;-65
2022/01/28 06:43:02;;;;;;;;;;;;;;;-10.58;53.12;97211.13;6311161;28;19930;-64
2022/01/28 06:46:03;;;;;;;;;;;;;;;-10.46;52.87;97210.53;6315051;28;20294;-66
2022/01/28 06:49:06;;;;;;;;;;;;;;;-10.34;52.49;97209.94;6313732;28;19924;-63
2022/01/28 06:52:07;;;;;;;;;;;;;;;-10.24;52.24;97210.16;6317956;28;20301;-65
2022/01/28 06:55:09;;;;;;;;;;;;;;;-10.10;52.44;97205.34;6316178;28;20404;-65
2022/01/28 06:58:11;;;;;;;;;;;;;;;-9.98;52.24;97203.06;6314252;28;20374;-65
2022/01/28 07:01:14;;;;;;;;;;;;;;;-9.98;52.17;97202.19;6315508;28;19928;-65
2022/01/28 07:04:17;;;;;;;;;;;;;;;-9.99;52.21;97203.00;6312990;28;19927;-64
2022/01/28 07:07:20;;;;;;;;;;;;;;;-10.06;52.26;97212.22;6312071;28;19931;-62
2022/01/28 07:10:24;;;;;;;;;;;;;;;-10.17;52.46;97203.50;6298570;28;19931;-64
2022/01/28 07:13:28;;;;;;;;;;;;;;;-10.18;52.60;97210.28;6308918;28;19928;-67
2022/01/28 07:16:30;;;;;;;;;;;;;;;-10.16;52.84;97205.22;6311186;28;20069;-68
2022/01/28 07:19:33;;;;;;;;;;;;;;;-10.20;52.59;97203.44;6307261;28;19920;-68
2022/01/28 07:22:37;;;;;;;;;;;;;;;-10.22;52.58;97205.06;6309366;28;19935;-62
2022/01/28 07:25:38;;;;;;;;;;;;;;;-10.24;52.71;97199.13;6308261;28;19928;-63
2022/01/28 07:28:41;;;;;;;;;;;;;;;-10.18;52.51;97206.88;6314992;28;20283;-66
2022/01/28 07:31:43;;;;;;;;;;;;;;;-10.04;52.56;97195.31;6303644;28;19916;-65
2022/01/28 07:34:47;;;;;;;;;;;;;;;-9.86;52.31;97193.94;6313710;28;20466;-65
2022/01/28 07:37:48;;;;;;;;;;;;;;;-9.70;51.91;97195.97;6307872;28;20032;-62
2022/01/28 07:40:49;;;;;;;;;;;;;;;-9.53;52.05;97199.69;6303233;28;20297;-63
2022/01/28 07:43:50;;;;;;;;;;;;;;;-9.38;51.18;97211.00;6314201;28;19924;-63
2022/01/28 07:46:55;;;;;;;;;;;;;;;-9.38;51.06;97218.63;6310079;28;19924;-65
2022/01/28 07:49:56;;;;;;;;;;;;;;;-9.27;51.48;97217.16;6307524;28;20339;-64
2022/01/28 07:52:57;;;;;;;;;;;;;;;-9.05;51.23;97213.28;6308742;28;19924;-63
2022/01/28 07:55:58;;;;;;;;;;;;;;;-8.88;50.82;97222.09;6311894;28;20034;-62
2022/01/28 07:58:59;;;;;;;;;;;;;;;-8.74;50.24;97222.31;6310929;28;19928;-64
2022/01/28 08:02:00;;;;;;;;;;;;;;;-8.67;50.40;97224.09;6307535;28;19931;-64
2022/01/28 08:05:06;;;;;;;;;;;;;;;-8.57;50.63;97221.72;6305743;28;19924;-62
2022/01/28 08:08:09;;;;;;;;;;;;;;;-8.52;50.99;97228.63;6304054;28;20305;-65
2022/01/28 08:11:13;;;;;;;;;;;;;;;-8.48;50.83;97232.91;6311172;28;21214;-65
2022/01/28 08:14:14;;;;;;;;;;;;;;;-8.43;50.51;97235.56;6313333;28;19938;-65
2022/01/28 08:17:17;;;;;;;;;;;;;;;-8.45;50.68;97234.66;6311561;28;20437;-66
2022/01/28 08:20:18;;;;;;;;;;;;;;;-8.49;50.99;97230.31;6311613;28;19931;-65
2022/01/28 08:23:22;;;;;;;;;;;;;;;-8.45;51.21;97224.44;6310971;28;19938;-65
2022/01/28 08:26:25;;;;;;;;;;;;;;;-8.37;50.89;97222.84;6309965;28;19919;-64
2022/01/28 08:29:28;;;;;;;;;;;;;;;-8.37;51.16;97222.84;6308578;28;19946;-64
2022/01/28 08:32:31;;;;;;;;;;;;;;;-8.31;50.94;97220.38;6310240;28;20345;-65
2022/01/28 08:35:39;;;;;;;;;;;;;;;-8.23;50.50;97213.69;6314981;28;19923;-65
2022/01/28 08:38:48;;;;;;;;;;;;;;;-8.16;50.65;97206.97;6302552;28;19931;-65
2022/01/28 08:41:51;;;;;;;;;;;;;;;-8.09;50.39;97205.38;6296047;28;20368;-64
2022/01/28 08:44:57;;;;;;;;;;;;;;;-8.04;50.39;97208.81;6307444;28;19953;-64
2022/01/28 08:47:58;;;;;;;;;;;;;;;-8.03;49.96;97205.44;6297623;28;20297;-67
2022/01/28 08:51:02;;;;;;;;;;;;;;;-8.11;50.71;97201.94;6318424;28;20386;-65
2022/01/28 08:54:04;;;;;;;;;;;;;;;-8.25;50.44;97205.16;6317341;28;19924;-64
2022/01/28 08:57:05;;;;;;;;;;;;;;;-8.40;50.89;97199.88;6314023;28;19964;-64
2022/01/28 09:00:08;;;;;;;;;;;;;;;-8.52;51.42;97199.66;6313289;28;19927;-66
2022/01/28 09:03:09;;;;;;;;;;;;;;;-8.61;51.45;97191.03;6302381;28;19924;-65
2022/01/28 09:06:10;;;;;;;;;;;;;;;-8.59;51.57;97184.28;6304698;28;19927;-65
2022/01/28 09:09:11;;;;;;;;;;;;;;;-8.52;50.79;97181.81;6319251;28;20409;-65
2022/01/28 09:15:25;;;;;;;;;;;;;;;-8.34;50.78;97184.59;6312600;28;19945;-64
2022/01/28 09:18:26;;;;;;;;;;;;;;;-8.26;50.54;97177.91;6305437;28;19924;-64
2022/01/28 09:21:30;;;;;;;;;;;;;;;-8.11;50.40;97181.50;6309772;28;19931;-64
2022/01/28 09:24:33;;;;;;;;;;;;;;;-7.99;49.92;97179.94;6308813;28;19925;-65
2022/01/28 09:27:35;;;;;;;;;;;;;;;-8.06;50.04;97182.44;6314310;28;19928;-63
2022/01/28 09:30:38;;;;;;;;;;;;;;;-8.10;50.60;97189.16;6313991;28;19932;-65
2022/01/28 09:33:43;;;;;;;;;;;;;;;-8.16;50.32;97184.84;6311477;28;19924;-64
2022/01/28 09:36:43;;;;;;;;;;;;;;;-8.21;50.41;97180.50;6316271;28;19928;-64
2022/01/28 09:39:45;;;;;;;;;;;;;;;-8.26;50.86;97177.91;6315940;28;19925;-63
2022/01/28 09:42:48;;;;;;;;;;;;;;;-8.23;50.65;97172.00;6314527;28;20309;-66
2022/01/28 09:45:51;;;;;;;;;;;;;;;-8.34;50.74;97164.19;6310183;28;19924;-64
2022/01/28 09:48:52;;;;;;;;;;;;;;;-8.42;51.10;97163.25;6315323;28;20030;-64
2022/01/28 09:51:56;;;;;;;;;;;;;;;-8.48;51.18;97161.47;6318787;28;19955;-63
2022/01/28 09:55:00;;;;;;;;;;;;;;;-8.53;51.43;97154.59;6309523;28;20623;-66
2022/01/28 09:58:01;;;;;;;;;;;;;;;-8.59;51.63;97153.66;6306733;28;20003;-66
2022/01/28 10:01:02;;;;;;;;;;;;;;;-8.66;51.55;97151.88;6309328;28;19931;-66
2022/01/28 10:04:07;;;;;;;;;;;;;;;-8.63;51.63;97148.50;6313159;28;20283;-66
2022/01/28 10:07:13;;;;;;;;;;;;;;;-8.65;51.57;97145.91;6316270;28;20514;-66
2022/01/28 10:10:19;;;;;;;;;;;;;;;-8.67;51.58;97132.28;6311687;28;19924;-67
2022/01/28 10:13:32;;;;;;;;;;;;;;;-8.68;51.79;97130.56;6311484;28;19924;-66
2022/01/28 10:16:34;;;;;;;;;;;;;;;-8.67;51.80;97124.63;6314020;28;19924;-66
2022/01/28 10:19:40;;;;;;;;;;;;;;;-8.62;51.74;97120.44;6312550;28;19924;-65
2022/01/28 10:22:58;;;;;;;;;;;;;;;-8.57;51.62;97119.69;6313385;28;19924;-66
2022/01/28 10:26:01;;;;;;;;;;;;;;;-8.42;51.91;97109.66;6309191;28;19963;-68
2022/01/28 10:29:05;;;;;;;;;;;;;;;-8.35;51.65;97121.63;6314346;28;19931;-66
2022/01/28 10:32:17;;;;;;;;;;;;;;;-8.34;51.49;97113.13;6321279;28;19931;-67
2022/01/28 10:35:29;;;;;;;;;;;;;;;-8.34;51.52;97113.13;6326682;28;20408;-66
2022/01/28 10:38:36;;;;;;;;;;;;;;;-8.31;51.49;97115.72;6317624;28;20385;-67
2022/01/28 10:41:47;;;;;;;;;;;;;;;-8.31;51.72;97118.28;6312976;28;20482;-66
2022/01/28 10:44:55;;;;;;;;;;;;;;;-8.38;51.79;97117.34;6306409;28;19924;-67
2022/01/28 10:48:00;;;;;;;;;;;;;;;-8.42;51.80;97119.88;6311528;28;19924;-67
2022/01/28 10:51:10;;;;;;;;;;;;;;;-8.42;51.83;97125.81;6320484;28;19924;-67
2022/01/28 10:54:14;;;;;;;;;;;;;;;-8.42;52.02;97125.81;6312498;28;20390;-66
2022/01/28 10:57:15;;;;;;;;;;;;;;;-8.42;51.69;97124.97;6315595;28;20419;-65
2022/01/28 11:00:17;;;;;;;;;;;;;;;-8.38;52.15;97127.56;6320093;28;20032;-66
2022/01/28 11:03:26;;;;;;;;;;;;;;;-8.38;52.17;97116.47;6313146;28;19924;-66
2022/01/28 11:06:28;;;;;;;;;;;;;;;-8.43;52.32;97110.50;6311218;28;19924;-67
2022/01/28 11:09:35;;;;;;;;;;;;;;;-8.48;52.38;97117.25;6302149;28;19931;-66
2022/01/28 11:12:38;;;;;;;;;;;;;;;-8.55;52.18;97123.09;6307761;28;19924;-67
2022/01/28 11:15:42;;;;;;;;;;;;;;;-8.62;52.39;97122.16;6312683;28;19928;-66
2022/01/28 11:18:49;;;;;;;;;;;;;;;-8.68;52.48;97122.06;6294356;28;19924;-66
2022/01/28 11:22:10;;;;;;;;;;;;;;;-8.73;53.10;97129.63;6295470;28;20018;-67
2022/01/28 11:25:27;;;;;;;;;;;;;;;-8.82;52.89;97124.41;6313583;28;19942;-66
2022/01/28 11:28:41;;;;;;;;;;;;;;;-8.85;53.23;97134.56;6315673;28;19924;-66
2022/01/28 11:31:49;;;;;;;;;;;;;;;-8.87;53.08;97136.22;6318879;28;19924;-67
2022/01/28 11:34:57;;;;;;;;;;;;;;;-8.94;53.38;97135.28;6316085;28;19928;-67
2022/01/28 11:38:04;;;;;;;;;;;;;;;-8.94;53.70;97134.44;6315931;28;19928;-69
2022/01/28 11:41:15;;;;;;;;;;;;;;;-9.06;53.56;97130.88;6319668;28;20018;-65
2022/01/28 11:44:36;;;;;;;;;;;;;;;-9.12;54.00;97140.09;6292052;28;19931;-65
2022/01/28 11:47:41;;;;;;;;;;;;;;;-9.14;54.13;97129.88;6316869;28;19931;-64
2022/01/28 11:51:02;;;;;;;;;;;;;;;-9.21;53.92;97137.41;6317012;28;20332;-66
2022/01/28 11:54:09;;;;;;;;;;;;;;;-9.30;54.00;97130.47;6311342;28;19947;-66
2022/01/28 11:57:12;;;;;;;;;;;;;;;-9.34;54.24;97136.31;6311401;28;19974;-65
2022/01/28 12:00:23;;;;;;;;;;;;;;;-9.35;54.25;97132.06;6301517;28;19924;-66
2022/01/28 12:03:25;;;;;;;;;;;;;;;-9.37;54.50;97133.72;6315944;28;19989;-64
2022/01/28 12:06:27;;;;;;;;;;;;;;;-9.42;54.14;97126.00;6311464;28;20290;-65
2022/01/28 12:09:32;;;;;;;;;;;;;;;-9.47;54.29;97126.78;6312508;28;20275;-61
2022/01/28 12:12:41;;;;;;;;;;;;;;;-9.53;54.41;97120.72;6307958;28;19935;-63
2022/01/28 12:15:59;;;;;;;;;;;;;;;-9.61;54.40;97117.19;6312140;28;19928;-64
2022/01/28 12:19:02;;;;;;;;;;;;;;;-9.64;54.57;97119.69;6313763;28;19924;-64
2022/01/28 12:22:04;;;;;;;;;;;;;;;-9.66;54.45;97116.25;6308987;28;19931;-62
2022/01/28 12:25:25;;;;;;;;;;;;;;;-9.68;54.59;97117.94;6312292;28;20413;-63
2022/01/28 12:28:51;;;;;;;;;;;;;;;-9.70;54.66;97119.56;6313700;28;20051;-65
2022/01/28 12:31:56;;;;;;;;;;;;;;;-9.75;54.47;97105.91;6310892;28;19968;-63
2022/01/28 12:34:59;;;;;;;;;;;;;;;-9.79;54.45;97119.41;6310788;28;19924;-63
2022/01/28 12:38:05;;;;;;;;;;;;;;;-9.80;54.60;97113.44;6307116;28;19932;-63
2022/01/28 12:41:09;;;;;;;;;;;;;;;-9.87;54.89;97115.88;6308859;28;19976;-64
2022/01/28 12:44:14;;;;;;;;;;;;;;;-9.90;54.91;97105.63;6314381;28;19924;-63
2022/01/28 12:47:16;;;;;;;;;;;;;;;-9.98;55.21;97108.88;6307048;28;19927;-63
2022/01/28 12:50:20;;;;;;;;;;;;;;;-10.07;55.43;97107.84;6316880;28;19924;-63
2022/01/28 12:53:35;;;;;;;;;;;;;;;-10.11;55.87;97109.47;6311158;28;19927;-62
2022/01/28 12:56:40;;;;;;;;;;;;;;;-10.06;55.76;97099.38;6309120;28;19932;-62
2022/01/28 12:59:47;;;;;;;;;;;;;;;-10.11;55.83;97103.50;6293811;28;19924;-62
2022/01/28 13:02:51;;;;;;;;;;;;;;;-10.13;56.21;97097.53;6309848;28;19935;-63
2022/01/28 13:05:57;;;;;;;;;;;;;;;-10.11;56.04;97106.91;6312495;28;19963;-66
2022/01/28 13:08:59;;;;;;;;;;;;;;;-10.08;55.70;97098.47;6311355;28;20301;-63
2022/01/28 13:12:03;;;;;;;;;;;;;;;-10.11;56.02;97096.72;6307977;28;19925;-63
2022/01/28 13:15:09;;;;;;;;;;;;;;;-10.14;56.23;97099.22;6311681;28;19931;-64
2022/01/28 13:18:12;;;;;;;;;;;;;;;-10.18;56.43;97100.00;6315108;28;19946;-64
2022/01/28 13:21:16;;;;;;;;;;;;;;;-10.20;56.20;97109.28;6311409;28;19924;-63
2022/01/28 13:24:20;;;;;;;;;;;;;;;-10.23;56.43;97111.78;6313966;28;19975;-62
2022/01/28 13:27:45;;;;;;;;;;;;;;;-10.21;56.47;97117.75;6308287;28;19924;-64
2022/01/28 13:30:53;;;;;;;;;;;;;;;-10.18;56.22;97115.28;6317375;28;19947;-63
2022/01/28 13:34:00;;;;;;;;;;;;;;;-10.16;56.37;97116.16;6325119;28;19931;-64
2022/01/28 13:37:07;;;;;;;;;;;;;;;-10.13;56.24;97133.16;6309370;28;19924;-65
2022/01/28 13:40:10;;;;;;;;;;;;;;;-10.15;56.23;97125.50;6317097;28;19924;-64
2022/01/28 13:43:15;;;;;;;;;;;;;;;-10.17;56.43;97117.81;6305176;28;19939;-64
2022/01/28 13:46:16;;;;;;;;;;;;;;;-10.16;56.64;97118.72;6312267;28;19932;-63
2022/01/28 13:49:22;;;;;;;;;;;;;;;-10.15;56.50;97110.25;6307755;28;19924;-67
2022/01/28 13:52:44;;;;;;;;;;;;;;;-10.12;56.65;97110.28;6290643;28;19962;-61
2022/01/28 13:55:47;;;;;;;;;;;;;;;-10.17;56.61;97116.97;6303649;28;19931;-62
2022/01/28 13:58:51;;;;;;;;;;;;;;;-10.20;56.61;97122.00;6320161;28;19931;-59
2022/01/28 14:01:54;;;;;;;;;;;;;;;-10.19;56.96;97119.50;6309329;28;19920;-62
2022/01/28 14:04:56;;;;;;;;;;;;;;;-10.19;57.21;97123.72;6304971;28;19925;-61
2022/01/28 14:07:57;;;;;;;;;;;;;;;-10.18;57.05;97125.44;6314329;28;20013;-62
2022/01/28 14:10:58;;;;;;;;;;;;;;;-10.18;57.10;97120.38;6318956;28;19927;-63
2022/01/28 14:14:05;;;;;;;;;;;;;;;-10.13;56.90;97121.31;6317167;28;20397;-63
2022/01/28 14:17:07;;;;;;;;;;;;;;;-10.07;56.81;97129.06;6315989;28;20405;-61
2022/01/28 14:20:09;;;;;;;;;;;;;;;-10.04;57.01;97125.72;6317314;28;20398;-63
2022/01/28 14:23:14;;;;;;;;;;;;;;;-10.00;57.04;97125.78;6311550;28;19981;-62
2022/01/28 14:26:16;;;;;;;;;;;;;;;-9.97;56.90;97125.84;6318370;28;19924;-64
2022/01/28 14:32:36;;;;;;;;;;;;;;;-9.95;57.01;97120.81;6318095;28;20306;-62
2022/01/28 14:35:38;;;;;;;;;;;;;;;-9.92;57.30;97117.47;6317004;28;20022;-62
2022/01/28 14:38:42;;;;;;;;;;;;;;;-9.91;57.39;97111.53;6316368;28;20318;-63
2022/01/28 14:41:47;;;;;;;;;;;;;;;-9.89;57.44;97112.44;6316418;28;20395;-62
2022/01/28 14:44:51;;;;;;;;;;;;;;;-9.90;57.31;97115.81;6296691;28;19935;-63
2022/01/28 14:47:54;;;;;;;;;;;;;;;-9.95;57.60;97114.03;6316624;28;20435;-61
2022/01/28 14:50:57;;;;;;;;;;;;;;;-9.94;57.94;97118.28;6317808;28;19924;-63
2022/01/28 14:53:58;;;;;;;;;;;;;;;-9.92;57.92;97110.69;6316817;28;20286;-63
2022/01/28 14:57:01;;;;;;;;;;;;;;;-9.89;57.84;97112.44;6301118;28;19931;-63
2022/01/28 15:00:03;;;;;;;;;;;;;;;-9.88;57.82;97102.25;6313318;28;19924;-62
2022/01/28 15:03:05;;;;;;;;;;;;;;;-9.85;57.74;97098.91;6317464;28;19928;-62
2022/01/28 15:06:06;;;;;;;;;;;;;;;-9.83;57.97;97094.72;6316567;28;19924;-62
2022/01/28 15:09:09;;;;;;;;;;;;;;;-9.81;57.97;97093.06;6317724;28;19935;-62
2022/01/28 15:12:11;;;;;;;;;;;;;;;-9.78;58.16;97099.06;6317206;28;19924;-62
2022/01/28 15:15:14;;;;;;;;;;;;;;;-9.76;57.78;97099.94;6318312;28;19924;-63
2022/01/28 15:18:16;;;;;;;;;;;;;;;-9.75;58.06;97093.16;6316165;28;20052;-63
2022/01/28 15:21:19;;;;;;;;;;;;;;;-9.74;58.09;97087.22;6317824;28;19924;-69
2022/01/28 15:24:22;;;;;;;;;;;;;;;-9.69;57.91;97084.78;6318565;28;19934;-62
2022/01/28 15:27:23;;;;;;;;;;;;;;;-9.68;58.17;97082.28;6313266;28;20301;-63
2022/01/28 15:34:11;;;;;;;;;;;;;;;-9.66;58.52;97075.50;6318458;28;19936;-62
2022/01/28 15:37:14;;;;;;;;;;;;;;;-9.60;58.31;97085.78;6317188;28;19924;-62
2022/01/28 15:40:18;;;;;;;;;;;;;;;-9.57;58.33;97085.81;6318221;28;20309;-63
2022/01/28 15:43:20;;;;;;;;;;;;;;;-9.56;58.21;97082.47;6317870;28;19927;-63
2022/01/28 15:46:28;;;;;;;;;;;;;;;-9.58;58.18;97089.22;6314393;28;19924;-63
2022/01/28 15:49:29;;;;;;;;;;;;;;;-9.56;58.07;97092.66;6317244;28;20342;-62
2022/01/28 15:52:33;;;;;;;;;;;;;;;-9.53;58.43;97095.25;6316787;28;20496;-63
2022/01/28 15:55:34;;;;;;;;;;;;;;;-9.51;58.63;97091.06;6316938;28;20407;-63
2022/01/28 15:58:35;;;;;;;;;;;;;;;-9.50;58.67;97092.75;6313993;28;20275;-62
2022/01/28 16:01:36;;;;;;;;;;;;;;;-9.46;58.47;97080.06;6312589;28;19920;-63
2022/01/28 16:04:40;;;;;;;;;;;;;;;-9.43;58.30;97080.97;6316876;28;19924;-63
2022/01/28 16:07:41;;;;;;;;;;;;;;;-9.42;58.65;97081.84;6320033;28;19920;-63
2022/01/28 16:11:20;;;;;;;;;;;;;;;-9.41;58.35;97081.00;6312293;28;20454;-67
2022/01/28 16:14:21;;;;;;;;;;;;;;;-9.39;58.12;97084.44;6305782;28;19924;-65
2022/01/28 16:17:37;;;;;;;;;;;;;;;-9.39;58.49;97084.44;6315165;28;19924;-64
2022/01/28 16:20:38;;;;;;;;;;;;;;;-9.41;58.56;97091.19;6315934;28;20374;-65
2022/01/28 16:23:40;;;;;;;;;;;;;;;-9.42;58.25;97080.16;6314200;28;19924;-64
2022/01/28 16:26:43;;;;;;;;;;;;;;;-9.44;58.54;97091.16;6313762;28;20397;-65
2022/01/28 16:29:44;;;;;;;;;;;;;;;-9.48;58.73;97090.25;6318554;28;19924;-65
2022/01/28 16:32:51;;;;;;;;;;;;;;;-9.52;58.79;97089.31;6301654;28;19924;-67
2022/01/28 16:35:56;;;;;;;;;;;;;;;-9.55;58.85;97089.28;6300503;28;19949;-67
2022/01/28 16:39:01;;;;;;;;;;;;;;;-9.56;59.16;97090.13;6306690;28;19931;-67
2022/01/28 16:42:06;;;;;;;;;;;;;;;-9.57;59.08;97090.06;6311460;28;20451;-66
2022/01/28 16:45:11;;;;;;;;;;;;;;;-9.58;59.27;97096.84;6314423;28;19931;-65
2022/01/28 16:48:13;;;;;;;;;;;;;;;-9.57;59.40;97096.03;6311057;28;19935;-65
2022/01/28 16:51:18;;;;;;;;;;;;;;;-9.57;59.20;97090.91;6316088;28;20378;-65
2022/01/28 16:54:22;;;;;;;;;;;;;;;-9.56;59.06;97082.47;6310834;28;19924;-65
2022/01/28 16:57:37;;;;;;;;;;;;;;;-9.53;59.16;97084.22;6298468;28;19924;-65
2022/01/28 17:00:47;;;;;;;;;;;;;;;-9.50;58.99;97082.56;6316839;28;20092;-68
2022/01/28 17:04:10;;;;;;;;;;;;;;;-9.50;58.99;97077.47;6310596;28;19925;-65
2022/01/28 17:07:11;;;;;;;;;;;;;;;-9.47;58.81;97083.47;6315792;28;19928;-66
2022/01/28 17:13:38;;;;;;;;;;;;;;;-9.47;58.96;97065.63;6313133;28;19924;-64
2022/01/28 17:16:39;;;;;;;;;;;;;;;-9.52;59.13;97063.84;6314618;28;19931;-64
2022/01/28 17:19:40;;;;;;;;;;;;;;;-9.47;59.41;97060.53;6315386;28;20388;-65
2022/01/28 17:22:43;;;;;;;;;;;;;;;-9.56;59.31;97057.00;6316753;28;20010;-64
2022/01/28 17:25:44;;;;;;;;;;;;;;;-9.61;59.76;97050.97;6316682;28;20118;-64